sensor_id;sensor_type;location;lat;lon;timestamp;P1;durP1;ratioP1;P2;durP2;ratioP2
26325;SDS011;14032;52.510;7.342;2022-09-23T00:01:21;5.78;;;3.63;;
26325;SDS011;14032;52.510;7.342;2022-09-23T00:03:47;9.85;;;3.90;;
26325;SDS011;14032;52.510;7.342;2022-09-23T00:06:15;6.40;;;3.07;;
26325;SDS011;14032;52.510;7.342;2022-09-23T00:08:45;8.43;;;3.97;;
26325;SDS011;14032;52.510;7.342;2022-09-23T00:11:12;6.57;;;3.70;;
26325;SDS011;14032;52.510;7.342;2022-09-23T00:13:43;8.85;;;3.90;;
26325;SDS011;14032;52.510;7.342;2022-09-23T00:16:22;5.37;;;3.50;;
26325;SDS011;14032;52.510;7.342;2022-09-23T00:18:59;5.38;;;3.22;;
26325;SDS011;14032;52.510;7.342;2022-09-23T00:21:26;6.00;;;3.45;;
26325;SDS011;14032;52.510;7.342;2022-09-23T00:23:52;6.68;;;3.75;;
26325;SDS011;14032;52.510;7.342;2022-09-23T00:26:18;6.05;;;3.33;;
26325;SDS011;14032;52.510;7.342;2022-09-23T00:28:45;5.10;;;3.70;;
26325;SDS011;14032;52.510;7.342;2022-09-23T00:31:13;8.98;;;3.70;;
26325;SDS011;14032;52.510;7.342;2022-09-23T00:33:41;5.63;;;3.70;;
26325;SDS011;14032;52.510;7.342;2022-09-23T00:36:08;9.27;;;3.78;;
26325;SDS011;14032;52.510;7.342;2022-09-23T00:38:36;7.03;;;3.72;;
26325;SDS011;14032;52.510;7.342;2022-09-23T00:41:02;6.30;;;3.75;;
26325;SDS011;14032;52.510;7.342;2022-09-23T00:46:02;7.60;;;3.58;;
26325;SDS011;14032;52.510;7.342;2022-09-23T00:48:30;10.95;;;4.20;;
26325;SDS011;14032;52.510;7.342;2022-09-23T00:50:55;8.80;;;4.07;;
26325;SDS011;14032;52.510;7.342;2022-09-23T00:53:21;4.60;;;3.47;;
26325;SDS011;14032;52.510;7.342;2022-09-23T00:55:52;6.90;;;3.95;;
26325;SDS011;14032;52.510;7.342;2022-09-23T00:58:25;6.43;;;3.92;;
26325;SDS011;14032;52.510;7.342;2022-09-23T01:00:55;7.40;;;4.10;;
26325;SDS011;14032;52.510;7.342;2022-09-23T01:03:25;6.25;;;4.35;;
26325;SDS011;14032;52.510;7.342;2022-09-23T01:05:52;6.88;;;4.32;;
26325;SDS011;14032;52.510;7.342;2022-09-23T01:08:17;8.45;;;4.57;;
26325;SDS011;14032;52.510;7.342;2022-09-23T01:10:58;9.00;;;4.70;;
26325;SDS011;14032;52.510;7.342;2022-09-23T01:16:49;8.48;;;4.60;;
26325;SDS011;14032;52.510;7.342;2022-09-23T01:22:06;6.28;;;4.75;;
26325;SDS011;14032;52.510;7.342;2022-09-23T01:27:56;10.30;;;5.15;;
26325;SDS011;14032;52.510;7.342;2022-09-23T01:38:41;8.05;;;5.43;;
26325;SDS011;14032;52.510;7.342;2022-09-23T01:44:24;9.65;;;5.00;;
26325;SDS011;14032;52.510;7.342;2022-09-23T01:47:13;8.57;;;4.90;;
26325;SDS011;14032;52.510;7.342;2022-09-23T01:49:49;8.82;;;5.00;;
26325;SDS011;14032;52.510;7.342;2022-09-23T01:52:46;11.00;;;5.43;;
26325;SDS011;14032;52.510;7.342;2022-09-23T01:55:17;10.45;;;5.18;;
26325;SDS011;14032;52.510;7.342;2022-09-23T01:57:47;8.35;;;6.00;;
26325;SDS011;14032;52.510;7.342;2022-09-23T02:00:17;6.70;;;5.00;;
26325;SDS011;14032;52.510;7.342;2022-09-23T02:05:47;10.48;;;6.22;;
26325;SDS011;14032;52.510;7.342;2022-09-23T02:08:21;8.88;;;5.32;;
26325;SDS011;14032;52.510;7.342;2022-09-23T02:10:59;7.15;;;5.63;;
26325;SDS011;14032;52.510;7.342;2022-09-23T02:13:45;9.77;;;5.47;;
26325;SDS011;14032;52.510;7.342;2022-09-23T02:16:26;9.18;;;5.93;;
26325;SDS011;14032;52.510;7.342;2022-09-23T02:18:58;8.13;;;5.85;;
26325;SDS011;14032;52.510;7.342;2022-09-23T02:21:40;7.68;;;5.95;;
26325;SDS011;14032;52.510;7.342;2022-09-23T02:24:44;12.55;;;5.85;;
26325;SDS011;14032;52.510;7.342;2022-09-23T02:30:21;8.95;;;5.80;;
26325;SDS011;14032;52.510;7.342;2022-09-23T02:38:17;9.57;;;5.28;;
26325;SDS011;14032;52.510;7.342;2022-09-23T02:40:58;7.70;;;5.28;;
26325;SDS011;14032;52.510;7.342;2022-09-23T02:43:53;9.57;;;5.05;;
26325;SDS011;14032;52.510;7.342;2022-09-23T02:46:26;9.77;;;5.25;;
26325;SDS011;14032;52.510;7.342;2022-09-23T02:48:58;9.60;;;4.80;;
26325;SDS011;14032;52.510;7.342;2022-09-23T02:51:35;8.25;;;5.70;;
26325;SDS011;14032;52.510;7.342;2022-09-23T02:54:02;9.55;;;4.72;;
26325;SDS011;14032;52.510;7.342;2022-09-23T02:56:29;8.15;;;4.85;;
26325;SDS011;14032;52.510;7.342;2022-09-23T02:58:55;12.63;;;5.10;;
26325;SDS011;14032;52.510;7.342;2022-09-23T03:06:59;9.48;;;4.70;;
26325;SDS011;14032;52.510;7.342;2022-09-23T03:15:18;7.35;;;4.40;;
26325;SDS011;14032;52.510;7.342;2022-09-23T03:20:48;9.10;;;4.80;;
26325;SDS011;14032;52.510;7.342;2022-09-23T03:23:20;6.10;;;4.20;;
26325;SDS011;14032;52.510;7.342;2022-09-23T03:25:51;5.47;;;4.50;;
26325;SDS011;14032;52.510;7.342;2022-09-23T03:28:19;8.23;;;4.15;;
26325;SDS011;14032;52.510;7.342;2022-09-23T03:30:47;8.60;;;4.55;;
26325;SDS011;14032;52.510;7.342;2022-09-23T03:33:15;6.93;;;4.30;;
26325;SDS011;14032;52.510;7.342;2022-09-23T03:35:48;11.45;;;4.50;;
26325;SDS011;14032;52.510;7.342;2022-09-23T03:38:38;8.73;;;4.20;;
26325;SDS011;14032;52.510;7.342;2022-09-23T03:41:08;9.40;;;4.97;;
26325;SDS011;14032;52.510;7.342;2022-09-23T03:43:37;12.55;;;4.20;;
26325;SDS011;14032;52.510;7.342;2022-09-23T03:46:04;7.30;;;4.38;;
26325;SDS011;14032;52.510;7.342;2022-09-23T03:48:30;8.23;;;4.30;;
26325;SDS011;14032;52.510;7.342;2022-09-23T03:50:56;6.78;;;4.03;;
26325;SDS011;14032;52.510;7.342;2022-09-23T03:53:22;8.93;;;4.20;;
26325;SDS011;14032;52.510;7.342;2022-09-23T03:55:47;5.68;;;4.15;;
26325;SDS011;14032;52.510;7.342;2022-09-23T03:58:13;5.53;;;4.32;;
26325;SDS011;14032;52.510;7.342;2022-09-23T04:00:40;6.93;;;4.43;;
26325;SDS011;14032;52.510;7.342;2022-09-23T04:03:06;5.82;;;4.38;;
26325;SDS011;14032;52.510;7.342;2022-09-23T04:05:31;5.55;;;3.95;;
26325;SDS011;14032;52.510;7.342;2022-09-23T04:07:57;7.78;;;4.25;;
26325;SDS011;14032;52.510;7.342;2022-09-23T04:10:23;7.47;;;4.28;;
26325;SDS011;14032;52.510;7.342;2022-09-23T04:12:48;6.97;;;4.25;;
26325;SDS011;14032;52.510;7.342;2022-09-23T04:15:14;7.50;;;4.75;;
26325;SDS011;14032;52.510;7.342;2022-09-23T04:17:39;8.25;;;4.53;;
26325;SDS011;14032;52.510;7.342;2022-09-23T04:20:05;7.68;;;4.85;;
26325;SDS011;14032;52.510;7.342;2022-09-23T04:22:32;7.70;;;4.53;;
26325;SDS011;14032;52.510;7.342;2022-09-23T04:24:58;7.78;;;4.47;;
26325;SDS011;14032;52.510;7.342;2022-09-23T04:27:23;9.75;;;4.95;;
26325;SDS011;14032;52.510;7.342;2022-09-23T04:29:52;5.97;;;4.50;;
26325;SDS011;14032;52.510;7.342;2022-09-23T04:32:17;7.38;;;4.45;;
26325;SDS011;14032;52.510;7.342;2022-09-23T04:34:43;7.68;;;4.45;;
26325;SDS011;14032;52.510;7.342;2022-09-23T04:37:08;7.65;;;4.85;;
26325;SDS011;14032;52.510;7.342;2022-09-23T04:39:34;7.53;;;4.20;;
26325;SDS011;14032;52.510;7.342;2022-09-23T04:41:59;6.88;;;4.00;;
26325;SDS011;14032;52.510;7.342;2022-09-23T04:44:25;6.40;;;4.07;;
26325;SDS011;14032;52.510;7.342;2022-09-23T04:46:52;5.53;;;4.25;;
26325;SDS011;14032;52.510;7.342;2022-09-23T04:49:17;6.95;;;4.03;;
26325;SDS011;14032;52.510;7.342;2022-09-23T04:51:43;5.75;;;4.13;;
26325;SDS011;14032;52.510;7.342;2022-09-23T04:54:10;5.78;;;4.30;;
26325;SDS011;14032;52.510;7.342;2022-09-23T04:56:38;11.63;;;4.72;;
26325;SDS011;14032;52.510;7.342;2022-09-23T04:59:03;7.05;;;4.47;;
26325;SDS011;14032;52.510;7.342;2022-09-23T05:01:30;6.97;;;4.80;;
26325;SDS011;14032;52.510;7.342;2022-09-23T05:03:58;6.70;;;4.47;;
26325;SDS011;14032;52.510;7.342;2022-09-23T05:06:26;6.28;;;4.32;;
26325;SDS011;14032;52.510;7.342;2022-09-23T05:08:54;7.85;;;4.38;;
26325;SDS011;14032;52.510;7.342;2022-09-23T05:11:21;7.05;;;4.20;;
26325;SDS011;14032;52.510;7.342;2022-09-23T05:13:47;6.13;;;4.40;;
26325;SDS011;14032;52.510;7.342;2022-09-23T05:16:15;4.82;;;4.20;;
26325;SDS011;14032;52.510;7.342;2022-09-23T05:18:41;6.22;;;4.63;;
26325;SDS011;14032;52.510;7.342;2022-09-23T05:21:09;10.65;;;4.65;;
26325;SDS011;14032;52.510;7.342;2022-09-23T05:23:36;8.40;;;4.30;;
26325;SDS011;14032;52.510;7.342;2022-09-23T05:26:20;8.40;;;4.30;;
26325;SDS011;14032;52.510;7.342;2022-09-23T05:28:49;15.00;;;4.82;;
26325;SDS011;14032;52.510;7.342;2022-09-23T05:31:16;7.38;;;4.80;;
26325;SDS011;14032;52.510;7.342;2022-09-23T05:33:44;9.20;;;3.92;;
26325;SDS011;14032;52.510;7.342;2022-09-23T05:36:12;6.30;;;4.63;;
26325;SDS011;14032;52.510;7.342;2022-09-23T05:38:38;7.85;;;4.53;;
26325;SDS011;14032;52.510;7.342;2022-09-23T05:41:05;9.18;;;4.65;;
26325;SDS011;14032;52.510;7.342;2022-09-23T05:43:33;9.05;;;4.70;;
26325;SDS011;14032;52.510;7.342;2022-09-23T05:48:41;9.80;;;4.03;;
26325;SDS011;14032;52.510;7.342;2022-09-23T05:51:12;10.93;;;4.43;;
26325;SDS011;14032;52.510;7.342;2022-09-23T05:53:39;8.40;;;4.03;;
26325;SDS011;14032;52.510;7.342;2022-09-23T05:56:06;7.45;;;4.43;;
26325;SDS011;14032;52.510;7.342;2022-09-23T05:58:32;6.47;;;4.47;;
26325;SDS011;14032;52.510;7.342;2022-09-23T06:00:57;13.27;;;4.60;;
26325;SDS011;14032;52.510;7.342;2022-09-23T06:03:24;7.30;;;4.07;;
26325;SDS011;14032;52.510;7.342;2022-09-23T06:05:53;5.40;;;3.53;;
26325;SDS011;14032;52.510;7.342;2022-09-23T06:08:19;6.20;;;3.95;;
26325;SDS011;14032;52.510;7.342;2022-09-23T06:10:45;8.70;;;4.55;;
26325;SDS011;14032;52.510;7.342;2022-09-23T06:13:12;5.70;;;4.30;;
26325;SDS011;14032;52.510;7.342;2022-09-23T06:15:37;6.20;;;4.40;;
26325;SDS011;14032;52.510;7.342;2022-09-23T06:18:04;10.82;;;5.00;;
26325;SDS011;14032;52.510;7.342;2022-09-23T06:20:30;6.82;;;4.28;;
26325;SDS011;14032;52.510;7.342;2022-09-23T06:23:04;6.35;;;3.92;;
26325;SDS011;14032;52.510;7.342;2022-09-23T06:25:32;7.97;;;3.85;;
26325;SDS011;14032;52.510;7.342;2022-09-23T06:27:58;8.38;;;4.70;;
26325;SDS011;14032;52.510;7.342;2022-09-23T06:30:24;9.20;;;4.38;;
26325;SDS011;14032;52.510;7.342;2022-09-23T06:32:51;7.22;;;4.25;;
26325;SDS011;14032;52.510;7.342;2022-09-23T06:35:19;8.65;;;4.95;;
26325;SDS011;14032;52.510;7.342;2022-09-23T06:37:47;6.82;;;4.20;;
26325;SDS011;14032;52.510;7.342;2022-09-23T06:40:13;9.00;;;4.20;;
26325;SDS011;14032;52.510;7.342;2022-09-23T06:42:39;6.30;;;4.22;;
26325;SDS011;14032;52.510;7.342;2022-09-23T06:45:06;5.97;;;4.30;;
26325;SDS011;14032;52.510;7.342;2022-09-23T06:47:37;6.65;;;4.18;;
26325;SDS011;14032;52.510;7.342;2022-09-23T06:50:03;6.53;;;4.15;;
26325;SDS011;14032;52.510;7.342;2022-09-23T06:52:29;6.25;;;4.25;;
26325;SDS011;14032;52.510;7.342;2022-09-23T06:54:55;7.10;;;4.40;;
26325;SDS011;14032;52.510;7.342;2022-09-23T06:57:21;7.72;;;4.28;;
26325;SDS011;14032;52.510;7.342;2022-09-23T06:59:46;8.70;;;4.20;;
26325;SDS011;14032;52.510;7.342;2022-09-23T07:02:12;7.15;;;4.53;;
26325;SDS011;14032;52.510;7.342;2022-09-23T07:04:38;12.63;;;4.30;;
26325;SDS011;14032;52.510;7.342;2022-09-23T07:07:04;10.40;;;4.43;;
26325;SDS011;14032;52.510;7.342;2022-09-23T07:09:29;9.57;;;4.40;;
26325;SDS011;14032;52.510;7.342;2022-09-23T07:11:55;8.38;;;4.07;;
26325;SDS011;14032;52.510;7.342;2022-09-23T07:14:20;6.85;;;3.88;;
26325;SDS011;14032;52.510;7.342;2022-09-23T07:16:49;7.30;;;3.92;;
26325;SDS011;14032;52.510;7.342;2022-09-23T07:19:17;6.13;;;3.95;;
26325;SDS011;14032;52.510;7.342;2022-09-23T07:21:42;8.60;;;4.20;;
26325;SDS011;14032;52.510;7.342;2022-09-23T07:24:08;6.53;;;4.10;;
26325;SDS011;14032;52.510;7.342;2022-09-23T07:26:33;8.43;;;4.43;;
26325;SDS011;14032;52.510;7.342;2022-09-23T07:29:00;8.27;;;4.57;;
26325;SDS011;14032;52.510;7.342;2022-09-23T07:31:29;11.70;;;3.97;;
26325;SDS011;14032;52.510;7.342;2022-09-23T07:33:55;9.93;;;4.93;;
26325;SDS011;14032;52.510;7.342;2022-09-23T07:36:22;8.10;;;4.82;;
26325;SDS011;14032;52.510;7.342;2022-09-23T07:38:48;10.25;;;4.82;;
26325;SDS011;14032;52.510;7.342;2022-09-23T07:41:15;9.32;;;4.70;;
26325;SDS011;14032;52.510;7.342;2022-09-23T07:43:42;9.23;;;4.60;;
26325;SDS011;14032;52.510;7.342;2022-09-23T07:46:10;8.23;;;4.40;;
26325;SDS011;14032;52.510;7.342;2022-09-23T07:48:40;10.30;;;4.63;;
26325;SDS011;14032;52.510;7.342;2022-09-23T07:51:10;6.70;;;4.43;;
26325;SDS011;14032;52.510;7.342;2022-09-23T07:54:06;5.63;;;4.10;;
26325;SDS011;14032;52.510;7.342;2022-09-23T07:56:34;6.95;;;4.68;;
26325;SDS011;14032;52.510;7.342;2022-09-23T07:59:01;8.30;;;4.40;;
26325;SDS011;14032;52.510;7.342;2022-09-23T08:01:28;7.28;;;4.72;;
26325;SDS011;14032;52.510;7.342;2022-09-23T08:03:57;9.75;;;4.25;;
26325;SDS011;14032;52.510;7.342;2022-09-23T08:06:25;9.60;;;4.90;;
26325;SDS011;14032;52.510;7.342;2022-09-23T08:08:50;9.25;;;4.70;;
26325;SDS011;14032;52.510;7.342;2022-09-23T08:11:16;6.85;;;4.53;;
26325;SDS011;14032;52.510;7.342;2022-09-23T08:13:42;6.47;;;4.20;;
26325;SDS011;14032;52.510;7.342;2022-09-23T08:16:08;8.82;;;4.18;;
26325;SDS011;14032;52.510;7.342;2022-09-23T08:18:34;7.65;;;4.30;;
26325;SDS011;14032;52.510;7.342;2022-09-23T08:21:00;8.80;;;4.38;;
26325;SDS011;14032;52.510;7.342;2022-09-23T08:23:26;9.07;;;4.47;;
26325;SDS011;14032;52.510;7.342;2022-09-23T08:25:59;7.53;;;4.18;;
26325;SDS011;14032;52.510;7.342;2022-09-23T08:28:26;10.30;;;4.18;;
26325;SDS011;14032;52.510;7.342;2022-09-23T08:30:52;6.38;;;4.30;;
26325;SDS011;14032;52.510;7.342;2022-09-23T08:33:18;9.70;;;4.18;;
26325;SDS011;14032;52.510;7.342;2022-09-23T08:35:44;8.00;;;4.43;;
26325;SDS011;14032;52.510;7.342;2022-09-23T08:38:09;8.90;;;4.63;;
26325;SDS011;14032;52.510;7.342;2022-09-23T08:40:36;5.63;;;4.13;;
26325;SDS011;14032;52.510;7.342;2022-09-23T08:43:04;7.88;;;4.85;;
26325;SDS011;14032;52.510;7.342;2022-09-23T08:45:31;7.00;;;4.68;;
26325;SDS011;14032;52.510;7.342;2022-09-23T08:48:16;8.15;;;4.35;;
26325;SDS011;14032;52.510;7.342;2022-09-23T08:50:57;10.85;;;5.05;;
26325;SDS011;14032;52.510;7.342;2022-09-23T08:53:28;9.63;;;4.35;;
26325;SDS011;14032;52.510;7.342;2022-09-23T08:56:03;6.32;;;4.55;;
26325;SDS011;14032;52.510;7.342;2022-09-23T09:01:21;6.70;;;4.55;;
26325;SDS011;14032;52.510;7.342;2022-09-23T09:03:55;9.75;;;4.88;;
26325;SDS011;14032;52.510;7.342;2022-09-23T09:06:33;8.07;;;4.30;;
26325;SDS011;14032;52.510;7.342;2022-09-23T09:09:05;7.45;;;3.92;;
26325;SDS011;14032;52.510;7.342;2022-09-23T09:11:37;5.43;;;4.18;;
26325;SDS011;14032;52.510;7.342;2022-09-23T09:17:04;7.38;;;4.97;;
26325;SDS011;14032;52.510;7.342;2022-09-23T09:25:13;8.57;;;5.10;;
26325;SDS011;14032;52.510;7.342;2022-09-23T09:27:48;9.85;;;4.70;;
26325;SDS011;14032;52.510;7.342;2022-09-23T09:30:14;6.95;;;4.50;;
26325;SDS011;14032;52.510;7.342;2022-09-23T09:36:13;8.73;;;4.70;;
26325;SDS011;14032;52.510;7.342;2022-09-23T09:38:17;10.18;;;4.55;;
26325;SDS011;14032;52.510;7.342;2022-09-23T09:40:46;9.52;;;4.55;;
26325;SDS011;14032;52.510;7.342;2022-09-23T09:43:16;10.82;;;4.75;;
26325;SDS011;14032;52.510;7.342;2022-09-23T09:45:58;5.45;;;3.78;;
26325;SDS011;14032;52.510;7.342;2022-09-23T09:48:51;8.10;;;4.43;;
26325;SDS011;14032;52.510;7.342;2022-09-23T09:51:24;6.72;;;4.28;;
26325;SDS011;14032;52.510;7.342;2022-09-23T09:53:51;11.45;;;5.15;;
26325;SDS011;14032;52.510;7.342;2022-09-23T09:56:21;9.90;;;5.00;;
26325;SDS011;14032;52.510;7.342;2022-09-23T09:58:58;9.05;;;5.00;;
26325;SDS011;14032;52.510;7.342;2022-09-23T10:03:56;11.65;;;5.45;;
26325;SDS011;14032;52.510;7.342;2022-09-23T10:06:25;6.47;;;4.20;;
26325;SDS011;14032;52.510;7.342;2022-09-23T10:11:41;5.35;;;4.00;;
26325;SDS011;14032;52.510;7.342;2022-09-23T10:14:25;8.80;;;5.30;;
26325;SDS011;14032;52.510;7.342;2022-09-23T10:17:00;8.65;;;4.88;;
26325;SDS011;14032;52.510;7.342;2022-09-23T10:19:29;7.82;;;4.60;;
26325;SDS011;14032;52.510;7.342;2022-09-23T10:21:57;8.70;;;4.85;;
26325;SDS011;14032;52.510;7.342;2022-09-23T10:24:27;8.38;;;4.97;;
26325;SDS011;14032;52.510;7.342;2022-09-23T10:26:56;7.38;;;5.00;;
26325;SDS011;14032;52.510;7.342;2022-09-23T10:37:55;11.35;;;4.45;;
26325;SDS011;14032;52.510;7.342;2022-09-23T10:46:29;6.15;;;4.45;;
26325;SDS011;14032;52.510;7.342;2022-09-23T11:09:22;8.75;;;4.45;;
26325;SDS011;14032;52.510;7.342;2022-09-23T11:13:15;7.43;;;4.10;;
26325;SDS011;14032;52.510;7.342;2022-09-23T11:18:05;7.82;;;4.93;;
26325;SDS011;14032;52.510;7.342;2022-09-23T11:26:16;9.93;;;5.20;;
26325;SDS011;14032;52.510;7.342;2022-09-23T11:28:53;9.00;;;4.30;;
26325;SDS011;14032;52.510;7.342;2022-09-23T11:36:51;6.07;;;4.13;;
26325;SDS011;14032;52.510;7.342;2022-09-23T11:40:10;7.93;;;4.38;;
26325;SDS011;14032;52.510;7.342;2022-09-23T11:42:21;6.18;;;3.75;;
26325;SDS011;14032;52.510;7.342;2022-09-23T11:44:55;9.07;;;4.78;;
26325;SDS011;14032;52.510;7.342;2022-09-23T11:47:33;6.38;;;5.10;;
26325;SDS011;14032;52.510;7.342;2022-09-23T11:50:04;13.77;;;4.90;;
26325;SDS011;14032;52.510;7.342;2022-09-23T11:52:54;8.32;;;4.07;;
26325;SDS011;14032;52.510;7.342;2022-09-23T11:55:41;7.22;;;4.32;;
26325;SDS011;14032;52.510;7.342;2022-09-23T12:00:44;7.43;;;4.60;;
26325;SDS011;14032;52.510;7.342;2022-09-23T12:03:24;9.35;;;4.13;;
26325;SDS011;14032;52.510;7.342;2022-09-23T12:06:03;6.47;;;4.38;;
26325;SDS011;14032;52.510;7.342;2022-09-23T12:08:34;7.72;;;4.13;;
26325;SDS011;14032;52.510;7.342;2022-09-23T12:18:55;8.80;;;4.63;;
26325;SDS011;14032;52.510;7.342;2022-09-23T12:21:35;10.60;;;4.93;;
26325;SDS011;14032;52.510;7.342;2022-09-23T12:26:41;7.78;;;4.43;;
26325;SDS011;14032;52.510;7.342;2022-09-23T12:29:10;7.03;;;3.70;;
26325;SDS011;14032;52.510;7.342;2022-09-23T12:31:37;11.07;;;4.43;;
26325;SDS011;14032;52.510;7.342;2022-09-23T12:34:07;12.27;;;3.88;;
26325;SDS011;14032;52.510;7.342;2022-09-23T12:36:47;8.75;;;3.70;;
26325;SDS011;14032;52.510;7.342;2022-09-23T12:41:47;10.18;;;5.18;;
26325;SDS011;14032;52.510;7.342;2022-09-23T12:49:55;7.13;;;4.15;;
26325;SDS011;14032;52.510;7.342;2022-09-23T12:52:23;6.57;;;4.47;;
26325;SDS011;14032;52.510;7.342;2022-09-23T12:54:53;11.45;;;5.18;;
26325;SDS011;14032;52.510;7.342;2022-09-23T13:05:03;6.93;;;4.43;;
26325;SDS011;14032;52.510;7.342;2022-09-23T13:08:11;7.22;;;4.75;;
26325;SDS011;14032;52.510;7.342;2022-09-23T13:10:42;9.63;;;4.07;;
26325;SDS011;14032;52.510;7.342;2022-09-23T13:13:24;8.98;;;3.50;;
26325;SDS011;14032;52.510;7.342;2022-09-23T13:16:09;7.50;;;4.05;;
26325;SDS011;14032;52.510;7.342;2022-09-23T13:18:55;7.55;;;4.60;;
26325;SDS011;14032;52.510;7.342;2022-09-23T13:27:26;7.32;;;3.53;;
26325;SDS011;14032;52.510;7.342;2022-09-23T13:29:38;10.00;;;3.63;;
26325;SDS011;14032;52.510;7.342;2022-09-23T13:32:11;7.72;;;4.05;;
26325;SDS011;14032;52.510;7.342;2022-09-23T13:34:39;10.02;;;3.80;;
26325;SDS011;14032;52.510;7.342;2022-09-23T13:43:00;6.35;;;3.08;;
26325;SDS011;14032;52.510;7.342;2022-09-23T13:45:35;6.43;;;3.65;;
26325;SDS011;14032;52.510;7.342;2022-09-23T13:48:07;7.68;;;4.10;;
26325;SDS011;14032;52.510;7.342;2022-09-23T13:50:43;5.72;;;3.55;;
26325;SDS011;14032;52.510;7.342;2022-09-23T13:53:31;7.68;;;3.33;;
26325;SDS011;14032;52.510;7.342;2022-09-23T13:56:01;5.72;;;2.83;;
26325;SDS011;14032;52.510;7.342;2022-09-23T13:58:30;4.82;;;2.63;;
26325;SDS011;14032;52.510;7.342;2022-09-23T14:00:57;7.15;;;2.40;;
26325;SDS011;14032;52.510;7.342;2022-09-23T14:03:27;7.82;;;2.90;;
26325;SDS011;14032;52.510;7.342;2022-09-23T14:06:01;4.47;;;2.60;;
26325;SDS011;14032;52.510;7.342;2022-09-23T14:08:33;5.88;;;2.53;;
26325;SDS011;14032;52.510;7.342;2022-09-23T14:10:59;8.35;;;3.47;;
26325;SDS011;14032;52.510;7.342;2022-09-23T14:13:26;5.90;;;3.08;;
26325;SDS011;14032;52.510;7.342;2022-09-23T14:15:57;11.05;;;4.53;;
26325;SDS011;14032;52.510;7.342;2022-09-23T14:18:27;7.80;;;6.65;;
26325;SDS011;14032;52.510;7.342;2022-09-23T14:20:57;6.43;;;4.05;;
26325;SDS011;14032;52.510;7.342;2022-09-23T14:23:23;5.45;;;3.05;;
26325;SDS011;14032;52.510;7.342;2022-09-23T14:25:49;5.18;;;2.75;;
26325;SDS011;14032;52.510;7.342;2022-09-23T14:28:17;5.00;;;3.10;;
26325;SDS011;14032;52.510;7.342;2022-09-23T14:30:44;7.53;;;2.92;;
26325;SDS011;14032;52.510;7.342;2022-09-23T14:33:13;4.60;;;2.47;;
26325;SDS011;14032;52.510;7.342;2022-09-23T14:35:48;6.43;;;2.75;;
26325;SDS011;14032;52.510;7.342;2022-09-23T14:38:20;5.70;;;2.30;;
26325;SDS011;14032;52.510;7.342;2022-09-23T14:41:17;6.10;;;2.85;;
26325;SDS011;14032;52.510;7.342;2022-09-23T14:46:19;9.40;;;3.35;;
26325;SDS011;14032;52.510;7.342;2022-09-23T14:48:51;8.10;;;3.10;;
26325;SDS011;14032;52.510;7.342;2022-09-23T14:51:18;4.68;;;2.67;;
26325;SDS011;14032;52.510;7.342;2022-09-23T14:53:45;5.75;;;2.58;;
26325;SDS011;14032;52.510;7.342;2022-09-23T14:56:15;5.25;;;3.30;;
26325;SDS011;14032;52.510;7.342;2022-09-23T14:58:46;5.18;;;3.15;;
26325;SDS011;14032;52.510;7.342;2022-09-23T15:06:39;6.75;;;2.95;;
26325;SDS011;14032;52.510;7.342;2022-09-23T15:09:09;4.22;;;2.38;;
26325;SDS011;14032;52.510;7.342;2022-09-23T15:11:41;5.75;;;2.20;;
26325;SDS011;14032;52.510;7.342;2022-09-23T15:14:07;3.60;;;2.28;;
26325;SDS011;14032;52.510;7.342;2022-09-23T15:16:34;6.03;;;2.33;;
26325;SDS011;14032;52.510;7.342;2022-09-23T15:18:59;5.00;;;1.95;;
26325;SDS011;14032;52.510;7.342;2022-09-23T15:21:32;3.95;;;1.98;;
26325;SDS011;14032;52.510;7.342;2022-09-23T15:24:30;5.13;;;2.22;;
26325;SDS011;14032;52.510;7.342;2022-09-23T15:27:08;5.60;;;2.38;;
26325;SDS011;14032;52.510;7.342;2022-09-23T15:29:57;5.03;;;2.40;;
26325;SDS011;14032;52.510;7.342;2022-09-23T15:32:39;7.47;;;2.50;;
26325;SDS011;14032;52.510;7.342;2022-09-23T15:35:05;4.95;;;2.38;;
26325;SDS011;14032;52.510;7.342;2022-09-23T15:37:33;3.40;;;2.25;;
26325;SDS011;14032;52.510;7.342;2022-09-23T15:40:00;5.43;;;2.70;;
26325;SDS011;14032;52.510;7.342;2022-09-23T15:42:25;7.03;;;3.03;;
26325;SDS011;14032;52.510;7.342;2022-09-23T15:44:53;6.20;;;2.67;;
26325;SDS011;14032;52.510;7.342;2022-09-23T15:47:19;6.35;;;2.80;;
26325;SDS011;14032;52.510;7.342;2022-09-23T15:49:45;6.28;;;2.72;;
26325;SDS011;14032;52.510;7.342;2022-09-23T15:52:11;4.32;;;2.20;;
26325;SDS011;14032;52.510;7.342;2022-09-23T15:54:38;4.88;;;2.40;;
26325;SDS011;14032;52.510;7.342;2022-09-23T15:57:03;4.00;;;1.98;;
26325;SDS011;14032;52.510;7.342;2022-09-23T15:59:29;4.47;;;1.90;;
26325;SDS011;14032;52.510;7.342;2022-09-23T16:01:55;4.45;;;2.17;;
26325;SDS011;14032;52.510;7.342;2022-09-23T16:04:27;4.75;;;2.00;;
26325;SDS011;14032;52.510;7.342;2022-09-23T16:06:52;7.13;;;2.35;;
26325;SDS011;14032;52.510;7.342;2022-09-23T16:09:18;4.90;;;2.05;;
26325;SDS011;14032;52.510;7.342;2022-09-23T16:11:44;3.28;;;1.92;;
26325;SDS011;14032;52.510;7.342;2022-09-23T16:14:13;4.10;;;1.67;;
26325;SDS011;14032;52.510;7.342;2022-09-23T16:16:40;4.30;;;2.03;;
26325;SDS011;14032;52.510;7.342;2022-09-23T16:19:07;5.03;;;2.10;;
26325;SDS011;14032;52.510;7.342;2022-09-23T16:21:33;3.55;;;2.08;;
26325;SDS011;14032;52.510;7.342;2022-09-23T16:23:59;7.25;;;2.22;;
26325;SDS011;14032;52.510;7.342;2022-09-23T16:26:26;5.38;;;2.00;;
26325;SDS011;14032;52.510;7.342;2022-09-23T16:28:57;5.45;;;1.92;;
26325;SDS011;14032;52.510;7.342;2022-09-23T16:31:24;7.20;;;2.35;;
26325;SDS011;14032;52.510;7.342;2022-09-23T16:33:51;4.00;;;1.90;;
26325;SDS011;14032;52.510;7.342;2022-09-23T16:36:21;4.95;;;2.08;;
26325;SDS011;14032;52.510;7.342;2022-09-23T16:38:51;6.47;;;2.00;;
26325;SDS011;14032;52.510;7.342;2022-09-23T16:41:20;5.07;;;1.77;;
26325;SDS011;14032;52.510;7.342;2022-09-23T16:43:47;4.20;;;1.90;;
26325;SDS011;14032;52.510;7.342;2022-09-23T16:46:14;4.78;;;2.17;;
26325;SDS011;14032;52.510;7.342;2022-09-23T16:48:42;4.50;;;2.10;;
26325;SDS011;14032;52.510;7.342;2022-09-23T16:51:17;4.50;;;1.95;;
26325;SDS011;14032;52.510;7.342;2022-09-23T16:53:46;6.05;;;2.13;;
26325;SDS011;14032;52.510;7.342;2022-09-23T16:56:13;3.92;;;1.90;;
26325;SDS011;14032;52.510;7.342;2022-09-23T16:58:40;4.90;;;2.10;;
26325;SDS011;14032;52.510;7.342;2022-09-23T17:01:07;5.28;;;2.00;;
26325;SDS011;14032;52.510;7.342;2022-09-23T17:03:57;5.07;;;1.90;;
26325;SDS011;14032;52.510;7.342;2022-09-23T17:06:23;3.60;;;2.15;;
26325;SDS011;14032;52.510;7.342;2022-09-23T17:08:51;5.72;;;2.08;;
26325;SDS011;14032;52.510;7.342;2022-09-23T17:11:17;4.97;;;1.95;;
26325;SDS011;14032;52.510;7.342;2022-09-23T17:13:44;6.93;;;2.38;;
26325;SDS011;14032;52.510;7.342;2022-09-23T17:16:10;4.53;;;2.17;;
26325;SDS011;14032;52.510;7.342;2022-09-23T17:18:49;5.18;;;2.00;;
26325;SDS011;14032;52.510;7.342;2022-09-23T17:21:15;5.40;;;1.85;;
26325;SDS011;14032;52.510;7.342;2022-09-23T17:23:40;5.70;;;2.25;;
26325;SDS011;14032;52.510;7.342;2022-09-23T17:26:06;6.50;;;2.63;;
26325;SDS011;14032;52.510;7.342;2022-09-23T17:28:36;6.57;;;2.92;;
26325;SDS011;14032;52.510;7.342;2022-09-23T17:31:02;8.07;;;2.60;;
26325;SDS011;14032;52.510;7.342;2022-09-23T17:33:31;8.43;;;2.60;;
26325;SDS011;14032;52.510;7.342;2022-09-23T17:36:04;5.57;;;2.40;;
26325;SDS011;14032;52.510;7.342;2022-09-23T17:38:31;4.95;;;2.55;;
26325;SDS011;14032;52.510;7.342;2022-09-23T17:40:57;6.30;;;3.00;;
26325;SDS011;14032;52.510;7.342;2022-09-23T17:43:25;11.57;;;3.97;;
26325;SDS011;14032;52.510;7.342;2022-09-23T17:45:52;11.38;;;5.82;;
26325;SDS011;14032;52.510;7.342;2022-09-23T17:48:20;110.68;;;68.10;;
26325;SDS011;14032;52.510;7.342;2022-09-23T17:50:58;96.80;;;62.08;;
26325;SDS011;14032;52.510;7.342;2022-09-23T17:53:27;45.17;;;29.15;;